Time;durP1;ratioP1;P1;durP2;ratioP2;P2;SDS_P1;SDS_P2;PMS_P1;PMS_P2;Temp;Humidity;BMP_temperature;BMP_pressure;BME280_temperature;BME280_humidity;BME280_pressure;Samples;Min_cycle;Max_cycle;Signal;HPM_P1;HPM_P2
2023/09/05 00:02:18;;;;;;;7.43;4.40;;;;;;;15.23;82.95;102069.97;4971478;28;21321;-70
2023/09/05 00:04:47;;;;;;;6.20;4.40;;;;;;;15.20;83.20;102064.47;4973916;28;20249;-70
2023/09/05 00:07:14;;;;;;;4.40;4.00;;;;;;;15.18;83.29;102064.81;4972981;28;20224;-71
2023/09/05 00:09:40;;;;;;;4.90;4.40;;;;;;;15.15;83.00;102056.66;4974068;28;20939;-71
2023/09/05 00:12:07;;;;;;;4.23;3.83;;;;;;;15.14;83.25;102060.44;4976663;28;20206;-70
2023/09/05 00:14:36;;;;;;;6.43;5.00;;;;;;;15.11;83.89;102063.75;4971421;28;20310;-71
2023/09/05 00:17:03;;;;;;;4.17;3.77;;;;;;;15.08;83.63;102049.22;4973249;28;20210;-71
2023/09/05 00:19:29;;;;;;;5.33;4.63;;;;;;;15.05;83.85;102052.50;4973232;28;20221;-71
2023/09/05 00:21:55;;;;;;;6.10;4.10;;;;;;;15.05;83.64;102057.06;4976702;28;20906;-71
2023/09/05 00:24:31;;;;;;;9.27;5.00;;;;;;;15.03;83.74;102053.91;4974393;28;20232;-71
2023/09/05 00:26:58;;;;;;;4.57;4.00;;;;;;;14.99;83.71;102051.13;4976541;28;21543;-70
2023/09/05 00:29:26;;;;;;;4.33;3.93;;;;;;;14.98;84.05;102046.09;4970350;28;20215;-71
2023/09/05 00:31:58;;;;;;;4.47;3.90;;;;;;;14.96;84.32;102048.31;4972183;28;20369;-71
2023/09/05 00:34:24;;;;;;;4.57;4.13;;;;;;;14.93;84.57;102046.28;4988800;28;20847;-71
2023/09/05 00:36:52;;;;;;;6.13;4.83;;;;;;;14.90;84.22;102049.59;4970227;28;20809;-71
2023/09/05 00:39:19;;;;;;;5.17;4.67;;;;;;;14.87;84.29;102043.03;4968924;28;21214;-70
2023/09/05 00:41:46;;;;;;;5.03;4.53;;;;;;;14.86;84.10;102038.03;4972734;28;20225;-71
2023/09/05 00:44:14;;;;;;;5.60;4.40;;;;;;;14.84;84.30;102032.22;4970687;28;20229;-70
2023/09/05 00:46:42;;;;;;;7.13;4.50;;;;;;;14.83;84.63;102031.47;4971190;28;21367;-71
2023/09/05 00:49:10;;;;;;;4.93;4.37;;;;;;;14.81;84.89;102038.97;4970361;28;20671;-71
2023/09/05 00:51:37;;;;;;;6.33;4.53;;;;;;;14.80;84.97;102041.97;4971583;28;21097;-70
2023/09/05 00:56:32;;;;;;;7.97;4.30;;;;;;;14.77;85.09;102043.38;4928078;28;20229;-70
2023/09/05 00:58:59;;;;;;;6.20;4.23;;;;;;;14.77;84.78;102039.91;4925854;28;20297;-70
2023/09/05 01:01:26;;;;;;;5.93;4.57;;;;;;;14.74;84.45;102033.34;4928389;28;20712;-70
2023/09/05 01:03:56;;;;;;;4.60;3.90;;;;;;;14.72;85.39;102035.56;4922193;28;20703;-70
2023/09/05 01:06:31;;;;;;;6.73;4.20;;;;;;;14.71;84.94;102036.66;4931530;28;20301;-70
2023/09/05 01:09:03;;;;;;;6.43;4.77;;;;;;;14.70;85.23;102037.75;4909293;28;20210;-71
2023/09/05 01:11:30;;;;;;;7.20;5.03;;;;;;;14.69;84.84;102032.75;4908883;28;21054;-71
2023/09/05 01:13:56;;;;;;;5.57;4.30;;;;;;;14.67;85.34;102027.75;4931822;28;20239;-71
2023/09/05 01:16:23;;;;;;;5.10;4.43;;;;;;;14.66;84.73;102025.41;4930467;28;20222;-71
2023/09/05 01:18:49;;;;;;;5.80;4.73;;;;;;;14.65;85.03;102023.84;4916729;28;20226;-71
2023/09/05 01:21:24;;;;;;;8.50;5.17;;;;;;;14.64;84.68;102024.97;4914937;28;20215;-70
2023/09/05 01:23:58;;;;;;;6.77;5.30;;;;;;;14.64;85.79;102025.72;4913395;28;20242;-70
2023/09/05 01:26:25;;;;;;;7.20;4.90;;;;;;;14.65;85.52;102018.53;4915343;28;20359;-70
2023/09/05 01:28:52;;;;;;;7.80;5.07;;;;;;;14.66;85.06;102018.22;4936791;28;20219;-70
2023/09/05 01:31:19;;;;;;;5.50;4.73;;;;;;;14.66;85.39;102014.78;4934423;28;20230;-70
2023/09/05 01:33:45;;;;;;;8.47;5.00;;;;;;;14.67;85.26;102025.09;4914560;28;20235;-70
2023/09/05 01:36:12;;;;;;;5.20;4.70;;;;;;;14.67;85.19;102017.13;4936468;28;20238;-71
2023/09/05 01:38:38;;;;;;;5.87;5.07;;;;;;;14.69;85.29;102012.25;4911864;28;20971;-70
2023/09/05 01:41:04;;;;;;;4.77;4.30;;;;;;;14.70;85.19;102021.03;4914102;28;20814;-71
2023/09/05 01:43:32;;;;;;;7.50;5.00;;;;;;;14.70;84.81;102023.69;4913108;28;20227;-70
2023/09/05 01:45:58;;;;;;;6.37;4.83;;;;;;;14.70;85.52;102029.00;4915877;28;20930;-70
2023/09/05 01:48:24;;;;;;;8.40;4.73;;;;;;;14.71;85.38;102025.25;4937013;28;20217;-70
2023/09/05 01:50:51;;;;;;;6.10;4.83;;;;;;;14.71;84.99;102019.94;4915439;28;22029;-70
2023/09/05 01:53:18;;;;;;;5.67;4.53;;;;;;;14.71;85.21;102026.03;4914487;28;20225;-70
2023/09/05 01:55:44;;;;;;;10.17;4.53;;;;;;;14.72;84.86;102018.81;4935882;28;20971;-71
2023/09/05 01:58:10;;;;;;;4.97;4.40;;;;;;;14.71;84.79;102015.41;4934188;28;21434;-70
2023/09/05 02:00:38;;;;;;;7.53;4.93;;;;;;;14.72;85.23;102016.94;4936466;28;20238;-71
2023/09/05 02:03:05;;;;;;;7.23;4.33;;;;;;;14.71;85.03;102007.41;4915600;28;20218;-70
2023/09/05 02:05:31;;;;;;;5.03;4.43;;;;;;;14.72;84.78;102008.97;4915640;28;20240;-71
2023/09/05 02:07:58;;;;;;;6.50;4.77;;;;;;;14.72;85.25;101994.88;4934463;28;24819;-71
2023/09/05 02:10:24;;;;;;;5.37;3.97;;;;;;;14.72;85.02;101992.22;4913372;28;20234;-71
2023/09/05 02:12:51;;;;;;;6.97;4.40;;;;;;;14.72;85.02;101993.03;4918794;28;21558;-71
2023/09/05 02:15:17;;;;;;;6.63;4.30;;;;;;;14.72;85.19;101993.03;4908900;28;20245;-70
2023/09/05 02:17:45;;;;;;;6.80;3.90;;;;;;;14.71;85.12;101991.47;4932259;28;20541;-70
2023/09/05 02:20:11;;;;;;;5.03;3.97;;;;;;;14.70;85.00;101987.22;4910123;28;20215;-71
2023/09/05 02:22:38;;;;;;;6.90;3.80;;;;;;;14.70;84.95;101984.56;4911893;28;20257;-71
2023/09/05 02:25:05;;;;;;;7.10;4.50;;;;;;;14.70;84.96;101989.88;4933296;28;20243;-71
2023/09/05 02:27:31;;;;;;;4.60;4.00;;;;;;;14.70;85.28;101997.09;4934767;28;20254;-71
2023/09/05 02:30:01;;;;;;;5.77;4.10;;;;;;;14.69;84.82;101991.00;4929108;28;20227;-70
2023/09/05 02:32:29;;;;;;;4.07;3.70;;;;;;;14.68;84.98;101992.09;4911736;28;20577;-71
2023/09/05 02:34:57;;;;;;;5.10;4.03;;;;;;;14.67;84.75;101992.41;4935191;28;20286;-71
2023/09/05 02:37:24;;;;;;;8.43;4.20;;;;;;;14.66;84.79;101988.97;4909591;28;21397;-70
2023/09/05 02:39:50;;;;;;;6.00;3.63;;;;;;;14.67;85.32;101987.09;4913388;28;20216;-70
2023/09/05 02:42:16;;;;;;;4.20;3.80;;;;;;;14.67;84.88;101990.53;4907399;28;20219;-71
2023/09/05 02:44:43;;;;;;;6.40;3.90;;;;;;;14.65;85.02;101986.63;4912891;28;20248;-71
2023/09/05 02:47:09;;;;;;;5.17;4.00;;;;;;;14.64;84.92;101985.09;4911920;28;20209;-71
2023/09/05 02:49:35;;;;;;;7.47;4.10;;;;;;;14.64;85.12;101987.75;4930632;28;20214;-70
2023/09/05 02:52:03;;;;;;;7.17;3.90;;;;;;;14.64;85.03;101982.41;4911150;28;20804;-71
2023/09/05 02:54:29;;;;;;;6.33;3.83;;;;;;;14.63;85.14;101984.28;4911496;28;20247;-71
2023/09/05 02:56:56;;;;;;;4.87;3.83;;;;;;;14.62;85.32;101982.72;4931249;28;20223;-71
2023/09/05 02:59:22;;;;;;;5.03;3.93;;;;;;;14.62;85.64;101992.56;4932186;28;20550;-71
2023/09/05 03:01:49;;;;;;;5.00;3.50;;;;;;;14.59;85.46;101980.69;4907899;28;20216;-71
2023/09/05 03:04:14;;;;;;;6.67;4.27;;;;;;;14.59;85.69;101982.59;4932216;28;20254;-70
2023/09/05 03:06:40;;;;;;;6.00;3.87;;;;;;;14.58;86.01;101981.81;4913529;28;20207;-70
2023/09/05 03:09:09;;;;;;;6.43;3.97;;;;;;;14.56;85.97;101977.91;4930986;28;20221;-70
2023/09/05 03:11:35;;;;;;;5.57;3.87;;;;;;;14.55;85.65;101977.09;4910035;28;20676;-70
2023/09/05 03:14:02;;;;;;;5.23;4.10;;;;;;;14.54;85.83;101970.25;4913443;28;20745;-71
2023/09/05 03:16:28;;;;;;;4.17;3.77;;;;;;;14.53;85.83;101973.22;4911100;28;20215;-70
2023/09/05 03:18:59;;;;;;;4.53;3.67;;;;;;;14.51;85.88;101973.53;4917643;28;20215;-71
2023/09/05 03:21:25;;;;;;;4.57;4.03;;;;;;;14.50;86.27;101971.19;4911556;28;21781;-70
2023/09/05 03:23:52;;;;;;;6.83;3.77;;;;;;;14.48;85.84;101970.72;4908091;28;20217;-70
2023/09/05 03:26:20;;;;;;;5.50;3.80;;;;;;;14.47;86.10;101969.97;4907508;28;20239;-71
2023/09/05 03:28:47;;;;;;;5.50;4.10;;;;;;;14.45;86.33;101971.38;4929042;28;20211;-71
2023/09/05 03:31:17;;;;;;;5.13;3.90;;;;;;;14.43;86.11;101973.56;4906731;28;20335;-71
2023/09/05 03:33:43;;;;;;;4.63;4.20;;;;;;;14.41;86.29;101973.88;4910314;28;21164;-72
2023/09/05 03:36:10;;;;;;;5.07;3.70;;;;;;;14.39;86.13;101964.66;4910692;28;20518;-71
2023/09/05 03:38:37;;;;;;;4.30;3.70;;;;;;;14.36;85.94;101971.41;4931256;28;21471;-70
2023/09/05 03:41:03;;;;;;;4.20;3.60;;;;;;;14.35;86.24;101971.72;4909393;28;20225;-70
2023/09/05 03:43:31;;;;;;;5.57;4.07;;;;;;;14.32;86.60;101972.31;4909725;28;20219;-70
2023/09/05 03:45:57;;;;;;;5.97;3.70;;;;;;;14.27;86.83;101965.31;4936118;28;20245;-70
2023/09/05 03:48:24;;;;;;;7.60;4.33;;;;;;;14.25;86.03;101964.06;4909282;28;20290;-71
2023/09/05 03:50:50;;;;;;;5.20;4.13;;;;;;;14.23;86.02;101960.97;4905922;28;20230;-71
2023/09/05 03:53:16;;;;;;;6.33;4.50;;;;;;;14.20;86.00;101965.03;4912421;28;20214;-71
2023/09/05 03:55:45;;;;;;;6.17;4.13;;;;;;;14.16;86.51;101963.28;4912394;28;20253;-71
2023/09/05 03:58:12;;;;;;;4.00;3.60;;;;;;;14.11;86.05;101958.13;4931875;28;20218;-71
2023/09/05 04:00:39;;;;;;;4.03;3.63;;;;;;;14.08;86.13;101962.19;4929605;28;20494;-71
2023/09/05 04:03:09;;;;;;;4.40;3.90;;;;;;;14.08;86.69;101961.41;4915153;28;20221;-70
2023/09/05 04:05:36;;;;;;;5.10;3.80;;;;;;;14.05;86.43;101957.53;4903362;28;20237;-70
2023/09/05 04:08:06;;;;;;;5.00;4.40;;;;;;;14.04;86.22;101952.53;4910364;28;22189;-71
2023/09/05 04:10:32;;;;;;;6.17;3.70;;;;;;;14.02;86.50;101950.16;4906843;28;20246;-70
2023/09/05 04:12:59;;;;;;;4.80;4.30;;;;;;;14.00;86.63;101943.59;4907799;28;20514;-70
2023/09/05 04:15:25;;;;;;;6.27;4.77;;;;;;;14.00;86.69;101948.91;4909680;28;20244;-70
2023/09/05 04:17:53;;;;;;;5.33;4.20;;;;;;;13.99;87.04;101953.47;4909373;28;20480;-70
2023/09/05 04:20:19;;;;;;;8.77;4.77;;;;;;;13.99;86.92;101952.69;4911182;28;20939;-70
2023/09/05 04:22:46;;;;;;;6.10;4.47;;;;;;;13.98;86.89;101945.81;4910737;28;20212;-70
2023/09/05 04:25:13;;;;;;;6.37;4.50;;;;;;;13.97;87.25;101947.69;4912666;28;20226;-71
2023/09/05 04:27:39;;;;;;;9.27;4.77;;;;;;;13.98;87.25;101945.81;4907535;28;21472;-71
2023/09/05 04:30:08;;;;;;;5.93;4.43;;;;;;;13.98;87.50;101951.13;4907227;28;20202;-70
2023/09/05 04:32:35;;;;;;;5.43;4.67;;;;;;;13.98;87.59;101951.13;4927457;28;21554;-70
2023/09/05 04:35:04;;;;;;;5.73;4.43;;;;;;;13.97;87.39;101954.88;4907198;28;20405;-71
2023/09/05 04:37:31;;;;;;;7.63;4.87;;;;;;;13.97;87.43;101962.84;4913882;28;21201;-70
2023/09/05 04:40:03;;;;;;;6.00;4.80;;;;;;;13.96;87.80;101970.03;4927454;28;20301;-70
2023/09/05 04:42:29;;;;;;;7.57;4.67;;;;;;;13.97;87.77;101976.88;4904824;28;20210;-71
2023/09/05 04:44:56;;;;;;;7.00;4.40;;;;;;;13.98;87.54;101980.34;4908698;28;20229;-70
2023/09/05 04:47:23;;;;;;;7.73;4.70;;;;;;;13.98;87.50;101983.00;4906102;28;20215;-70
2023/09/05 04:49:51;;;;;;;8.87;4.70;;;;;;;13.98;87.57;101975.78;4902562;28;20218;-71
2023/09/05 04:52:20;;;;;;;7.33;5.40;;;;;;;13.98;87.59;101975.78;4904580;28;21181;-71
2023/09/05 04:54:47;;;;;;;5.70;4.50;;;;;;;13.99;87.87;101979.22;4906177;28;20338;-71
2023/09/05 04:57:14;;;;;;;9.03;4.83;;;;;;;13.99;87.67;101977.38;4909471;28;20221;-70
2023/09/05 04:59:40;;;;;;;6.70;4.03;;;;;;;13.99;87.32;101979.22;4907188;28;20684;-71
2023/09/05 05:02:07;;;;;;;6.00;5.00;;;;;;;14.00;87.06;101973.63;4909351;28;20305;-71
2023/09/05 05:04:33;;;;;;;11.43;5.00;;;;;;;14.01;87.06;101964.53;4904608;28;20234;-70
2023/09/05 05:07:00;;;;;;;9.13;5.10;;;;;;;14.03;86.78;101969.56;4915799;28;20212;-70
2023/09/05 05:09:27;;;;;;;6.27;4.97;;;;;;;14.05;87.02;101970.00;4913075;28;20214;-71
2023/09/05 05:11:54;;;;;;;7.73;5.43;;;;;;;14.08;87.24;101978.13;4916889;28;20308;-71
2023/09/05 05:14:20;;;;;;;7.97;5.30;;;;;;;14.10;86.81;101983.91;4917569;28;20231;-71
2023/09/05 05:16:46;;;;;;;9.73;5.47;;;;;;;14.15;86.99;101982.97;4917636;28;21432;-71
2023/09/05 05:19:13;;;;;;;9.87;5.57;;;;;;;14.17;87.02;101986.88;4919600;28;20353;-71
2023/09/05 05:21:39;;;;;;;8.87;5.33;;;;;;;14.21;86.40;101992.34;4934652;28;20202;-70
2023/09/05 05:24:07;;;;;;;9.17;5.27;;;;;;;14.25;86.77;101983.47;4936974;28;21409;-71
2023/09/05 05:26:34;;;;;;;11.63;5.50;;;;;;;14.30;86.21;101979.84;4914329;28;20223;-71
2023/09/05 05:29:01;;;;;;;13.10;5.50;;;;;;;14.35;86.60;101983.13;4916883;28;20784;-71
2023/09/05 05:31:27;;;;;;;7.53;5.47;;;;;;;14.40;86.12;101985.63;4915950;28;20368;-72
2023/09/05 05:33:54;;;;;;;10.30;5.70;;;;;;;14.43;85.45;101987.63;4915119;28;21109;-71
2023/09/05 05:36:21;;;;;;;11.20;5.77;;;;;;;14.50;86.12;101992.47;4916571;28;20247;-71
2023/09/05 05:38:47;;;;;;;7.03;5.30;;;;;;;14.56;85.96;101991.97;4915639;28;21529;-71
2023/09/05 05:41:14;;;;;;;8.77;5.20;;;;;;;14.63;86.29;101994.13;4914731;28;20214;-71
2023/09/05 05:43:42;;;;;;;7.53;5.10;;;;;;;14.67;86.00;101995.84;4912176;28;21384;-70
2023/09/05 05:46:09;;;;;;;8.27;4.97;;;;;;;14.72;85.85;101993.03;4920464;28;20223;-71
2023/09/05 05:48:35;;;;;;;9.47;5.17;;;;;;;14.78;85.44;101989.09;4915824;28;20352;-70
2023/09/05 05:51:02;;;;;;;7.93;4.50;;;;;;;14.86;85.57;101987.50;4916722;28;20227;-70
2023/09/05 05:53:29;;;;;;;5.87;4.53;;;;;;;14.93;85.71;101990.41;4917828;28;22081;-70
2023/09/05 05:55:55;;;;;;;7.40;4.30;;;;;;;15.00;85.25;101990.72;4915902;28;21413;-71
2023/09/05 05:58:22;;;;;;;5.40;4.43;;;;;;;15.07;85.20;101996.31;4918843;28;20227;-70
2023/09/05 06:00:51;;;;;;;4.47;4.07;;;;;;;15.15;84.95;102000.78;4916601;28;20222;-70
2023/09/05 06:03:17;;;;;;;7.50;4.20;;;;;;;15.23;84.41;102003.44;4914973;28;20796;-70
2023/09/05 06:05:44;;;;;;;8.63;3.77;;;;;;;15.31;84.22;102007.91;4914676;28;21146;-71
2023/09/05 06:08:10;;;;;;;7.37;4.57;;;;;;;15.41;84.25;102012.09;4914960;28;20233;-70
2023/09/05 06:10:37;;;;;;;6.43;4.43;;;;;;;15.48;83.92;102015.03;4910117;28;21521;-70
2023/09/05 06:13:04;;;;;;;7.50;3.80;;;;;;;15.58;83.94;102007.44;4919709;28;20239;-71
2023/09/05 06:15:30;;;;;;;6.97;4.47;;;;;;;15.67;83.85;102000.19;4919516;28;20633;-70
2023/09/05 06:17:58;;;;;;;4.47;3.90;;;;;;;15.77;84.12;102010.44;4919514;28;20221;-70
2023/09/05 06:20:24;;;;;;;5.17;3.43;;;;;;;15.82;83.53;102004.91;4917179;28;21715;-70
2023/09/05 06:22:51;;;;;;;6.37;3.43;;;;;;;15.93;83.20;102007.97;4917355;28;20224;-70
2023/09/05 06:25:17;;;;;;;4.73;3.60;;;;;;;16.03;82.96;102007.56;4918095;28;20228;-70
2023/09/05 06:27:44;;;;;;;5.83;3.47;;;;;;;16.13;83.21;102007.94;4918729;28;20211;-71
2023/09/05 06:30:11;;;;;;;4.53;3.57;;;;;;;16.23;83.15;102010.19;4916601;28;20213;-71
2023/09/05 06:32:38;;;;;;;5.00;3.70;;;;;;;16.35;82.43;102014.81;4915859;28;20226;-70
2023/09/05 06:35:06;;;;;;;5.33;3.60;;;;;;;16.45;82.26;102004.50;4939111;28;20973;-70
2023/09/05 06:37:33;;;;;;;5.03;3.60;;;;;;;16.55;82.27;102001.44;4915137;28;20526;-70
2023/09/05 06:40:00;;;;;;;5.03;3.60;;;;;;;16.66;81.86;102005.22;4918829;28;20214;-70
2023/09/05 06:42:27;;;;;;;5.43;3.47;;;;;;;16.78;81.56;102009.78;4917210;28;20226;-71
2023/09/05 06:44:53;;;;;;;6.03;3.60;;;;;;;16.91;81.24;102000.69;4915124;28;20238;-70
2023/09/05 06:47:19;;;;;;;6.13;3.20;;;;;;;17.02;80.75;102007.91;4914819;28;20217;-71
2023/09/05 06:49:46;;;;;;;3.67;3.20;;;;;;;17.15;80.36;102004.16;4914556;28;20211;-71
2023/09/05 06:52:13;;;;;;;5.07;2.90;;;;;;;17.24;80.44;102001.34;4916456;28;20517;-71
2023/09/05 06:54:40;;;;;;;7.23;3.30;;;;;;;17.35;80.08;102007.78;4937024;23;20865;-73
2023/09/05 06:57:08;;;;;;;3.63;2.90;;;;;;;17.47;79.42;102011.25;4973988;28;20224;-73
2023/09/05 06:59:35;;;;;;;3.20;2.80;;;;;;;17.59;79.03;102013.88;4970976;28;20410;-73
2023/09/05 07:02:02;;;;;;;2.90;2.60;;;;;;;17.71;78.11;102013.09;4975771;28;20208;-73
2023/09/05 07:04:31;;;;;;;3.50;2.60;;;;;;;17.82;78.17;102017.63;4972510;28;20219;-74
2023/09/05 07:06:57;;;;;;;4.83;2.70;;;;;;;17.95;77.62;102013.03;4987018;28;20231;-72
2023/09/05 07:09:25;;;;;;;5.27;2.87;;;;;;;18.04;77.86;102013.63;4973359;28;21244;-74
2023/09/05 07:11:52;;;;;;;5.27;2.73;;;;;;;18.15;77.54;102010.13;4971930;28;20234;-72
2023/09/05 07:14:18;;;;;;;3.10;2.40;;;;;;;18.27;77.30;102018.09;4972505;28;20279;-72
2023/09/05 07:16:44;;;;;;;4.60;2.50;;;;;;;18.40;75.90;102011.59;4969799;28;20234;-72
2023/09/05 07:19:11;;;;;;;4.97;2.60;;;;;;;18.51;76.37;102015.31;4970737;28;20698;-72
2023/09/05 07:21:40;;;;;;;2.73;2.03;;;;;;;18.64;75.28;102019.50;4972555;28;20559;-72
2023/09/05 07:24:07;;;;;;;4.70;2.50;;;;;;;18.77;75.25;102023.63;4972158;28;20212;-72
2023/09/05 07:26:35;;;;;;;3.37;2.37;;;;;;;18.88;73.87;102015.88;4970690;28;20805;-72
2023/09/05 07:29:02;;;;;;;3.80;2.50;;;;;;;18.97;74.25;102017.22;4971175;28;20566;-72
2023/09/05 07:31:31;;;;;;;2.30;2.07;;;;;;;19.07;73.52;102014.03;4969713;28;20228;-72
2023/09/05 07:33:57;;;;;;;2.90;2.20;;;;;;;19.16;72.99;102011.94;4972943;28;20330;-73
2023/09/05 07:36:24;;;;;;;4.53;2.67;;;;;;;19.25;73.51;102015.22;4967671;28;20243;-72
2023/09/05 07:38:50;;;;;;;3.60;2.27;;;;;;;19.35;71.29;102021.97;4971910;28;20682;-72
2023/09/05 07:41:16;;;;;;;3.37;2.00;;;;;;;19.44;70.72;102022.53;4968632;28;20212;-73
2023/09/05 07:43:44;;;;;;;4.63;2.30;;;;;;;19.50;71.40;102027.25;4971570;28;21793;-72
2023/09/05 07:46:11;;;;;;;3.53;2.50;;;;;;;19.59;70.84;102024.38;4970193;28;20223;-72
2023/09/05 07:48:38;;;;;;;9.50;2.87;;;;;;;19.66;71.61;102021.88;4971475;28;21406;-72
2023/09/05 07:51:07;;;;;;;3.87;2.50;;;;;;;19.73;70.90;102025.47;4969562;28;20239;-73
2023/09/05 07:53:35;;;;;;;4.50;2.10;;;;;;;19.83;70.17;102029.50;4971459;28;21304;-72
2023/09/05 07:56:02;;;;;;;4.83;2.40;;;;;;;19.89;70.73;102031.53;4972091;28;20231;-73
2023/09/05 07:58:28;;;;;;;2.97;2.10;;;;;;;19.98;69.64;102034.78;4970652;28;20214;-73
2023/09/05 08:00:56;;;;;;;3.50;1.83;;;;;;;20.01;67.32;102026.03;4970253;28;21423;-72
2023/09/05 08:03:25;;;;;;;4.60;2.57;;;;;;;20.10;69.40;102032.00;4969189;28;20207;-73
2023/09/05 08:05:53;;;;;;;3.70;2.10;;;;;;;20.19;68.77;102021.03;4967842;28;20250;-73
2023/09/05 08:08:20;;;;;;;4.70;2.40;;;;;;;20.29;68.15;102026.59;4972250;28;20207;-72
2023/09/05 08:10:46;;;;;;;5.00;2.13;;;;;;;20.37;68.75;102028.28;4969410;28;20598;-72
2023/09/05 08:13:14;;;;;;;4.60;2.50;;;;;;;20.46;66.93;102030.72;4971568;28;20242;-72
2023/09/05 08:15:43;;;;;;;3.93;2.30;;;;;;;20.54;68.73;102017.06;4970659;28;20903;-72
2023/09/05 08:18:11;;;;;;;3.97;2.20;;;;;;;20.69;67.04;102026.16;4971723;28;20221;-72
2023/09/05 08:20:39;;;;;;;6.63;2.30;;;;;;;20.75;66.09;102025.47;4970021;28;20212;-72
2023/09/05 08:23:05;;;;;;;3.03;2.33;;;;;;;20.85;67.32;102024.13;4970402;28;20218;-72
2023/09/05 08:25:32;;;;;;;4.47;2.13;;;;;;;20.95;64.95;102016.25;4970331;28;20228;-72
2023/09/05 08:27:58;;;;;;;5.37;2.10;;;;;;;21.06;65.24;102025.25;4971299;28;21476;-72
2023/09/05 08:30:25;;;;;;;3.37;2.00;;;;;;;21.17;65.75;102022.72;4969704;28;20707;-72
2023/09/05 08:32:51;;;;;;;2.97;2.00;;;;;;;21.28;64.46;102011.00;4968151;28;20339;-72
2023/09/05 08:35:19;;;;;;;4.97;2.20;;;;;;;21.39;61.84;102016.50;4969975;28;20224;-72
2023/09/05 08:37:45;;;;;;;2.77;1.90;;;;;;;21.49;62.27;102019.34;4970229;28;20204;-72
2023/09/05 08:40:13;;;;;;;3.40;2.00;;;;;;;21.58;61.56;102019.81;4967832;28;20212;-72
2023/09/05 08:42:40;;;;;;;3.80;1.80;;;;;;;21.68;60.74;102003.09;4971167;28;20208;-72
2023/09/05 08:45:12;;;;;;;3.80;2.20;;;;;;;21.79;61.77;102008.59;4968053;28;20460;-72
2023/09/05 08:47:38;;;;;;;2.60;1.90;;;;;;;21.90;59.19;102006.81;4966417;28;20826;-73
2023/09/05 08:50:08;;;;;;;1.98;1.67;;;;;;;21.98;58.71;102000.38;4967792;28;20204;-72
2023/09/05 08:52:38;;;;;;;3.78;2.05;;;;;;;22.03;59.12;102005.41;4971123;28;20217;-72
2023/09/05 08:55:07;;;;;;;2.72;1.70;;;;;;;22.08;58.46;101999.69;4971342;28;20318;-72
2023/09/05 08:57:35;;;;;;;3.25;1.70;;;;;;;22.18;57.73;101997.13;4970707;28;20816;-72
2023/09/05 09:00:06;;;;;;;3.53;1.80;;;;;;;22.28;58.67;101988.38;4968063;28;20629;-72
2023/09/05 09:02:34;;;;;;;4.63;1.63;;;;;;;22.40;57.64;101993.50;4971261;28;20417;-72
2023/09/05 09:05:01;;;;;;;3.05;1.60;;;;;;;22.48;60.04;101989.75;4970843;28;21101;-72
2023/09/05 09:07:27;;;;;;;3.88;1.50;;;;;;;22.57;58.88;101989.44;4970572;28;20230;-72
2023/09/05 09:09:56;;;;;;;1.90;1.70;;;;;;;22.66;59.48;101998.75;4971175;28;20219;-72
2023/09/05 09:12:28;;;;;;;2.42;1.70;;;;;;;22.75;57.35;101987.66;4972309;28;20595;-72
2023/09/05 09:14:54;;;;;;;4.57;1.90;;;;;;;22.85;57.87;101995.03;4965771;28;20344;-72
2023/09/05 09:17:23;;;;;;;2.58;1.45;;;;;;;22.91;58.71;101982.75;4971009;28;21542;-72
2023/09/05 09:19:52;;;;;;;1.98;1.50;;;;;;;23.00;57.64;101988.59;4982914;28;20686;-73
2023/09/05 09:22:23;;;;;;;5.18;1.92;;;;;;;23.06;56.25;101990.56;4970630;28;20641;-72
2023/09/05 09:24:49;;;;;;;2.70;1.88;;;;;;;23.09;54.47;101992.53;4969714;28;20848;-72
2023/09/05 09:27:18;;;;;;;1.30;1.20;;;;;;;23.11;55.89;101992.91;4970641;28;20205;-72
2023/09/05 09:29:53;;;;;;;3.80;1.58;;;;;;;23.17;53.87;101987.97;4967883;28;20219;-72
2023/09/05 09:32:22;;;;;;;6.18;1.70;;;;;;;23.19;53.75;101983.00;4968108;28;20215;-72
2023/09/05 09:34:50;;;;;;;1.80;1.52;;;;;;;23.24;55.14;101988.03;4983094;28;20694;-72
2023/09/05 09:37:25;;;;;;;4.80;1.52;;;;;;;23.31;52.76;101987.28;4971423;28;21884;-72
2023/09/05 09:39:57;;;;;;;2.28;1.42;;;;;;;23.33;55.43;101989.22;4970028;28;21412;-72
2023/09/05 09:42:25;;;;;;;2.60;1.60;;;;;;;23.38;56.73;101979.22;4973236;28;20345;-72
2023/09/05 09:44:52;;;;;;;3.33;1.75;;;;;;;23.39;55.09;101982.31;4971525;28;20228;-72
2023/09/05 09:47:19;;;;;;;2.42;1.48;;;;;;;23.40;54.74;101977.69;4970360;28;20219;-71
2023/09/05 09:49:48;;;;;;;2.75;1.20;;;;;;;23.40;53.78;101975.00;4970378;28;20721;-72
2023/09/05 09:52:16;;;;;;;3.05;2.10;;;;;;;23.40;56.12;101975.00;4975385;28;20223;-72
2023/09/05 09:54:45;;;;;;;4.57;1.63;;;;;;;23.40;55.04;101972.31;4970081;28;20702;-71
2023/09/05 09:57:16;;;;;;;3.72;1.63;;;;;;;23.38;52.90;101960.34;4972954;28;20622;-72
2023/09/05 09:59:49;;;;;;;3.65;1.95;;;;;;;23.38;53.87;101956.50;4972547;28;20789;-72
2023/09/05 10:02:17;;;;;;;2.80;1.75;;;;;;;23.39;54.69;101952.66;4973127;28;20204;-72
2023/09/05 10:04:46;;;;;;;2.47;1.80;;;;;;;23.43;53.55;101955.38;4970294;28;20211;-72
2023/09/05 10:07:15;;;;;;;2.28;1.38;;;;;;;23.48;54.80;101948.84;4975357;28;20213;-72
2023/09/05 10:09:43;;;;;;;3.83;1.67;;;;;;;23.50;53.14;101947.31;4969071;28;20366;-71
2023/09/05 10:12:10;;;;;;;3.05;1.98;;;;;;;23.53;54.89;101950.03;4973876;28;20310;-72
2023/09/05 10:14:39;;;;;;;2.17;1.48;;;;;;;23.61;56.88;101961.59;4972540;28;21104;-72
2023/09/05 10:17:06;;;;;;;4.50;1.52;;;;;;;23.67;55.56;101967.41;4974114;28;20210;-72
2023/09/05 10:19:33;;;;;;;1.98;1.63;;;;;;;23.72;54.05;101953.56;4972507;28;20208;-72
2023/09/05 10:22:00;;;;;;;3.83;1.77;;;;;;;23.77;55.61;101960.13;4974321;28;20204;-72
2023/09/05 10:24:30;;;;;;;1.70;1.50;;;;;;;23.83;55.01;101954.38;4971480;28;21386;-72
2023/09/05 10:26:57;;;;;;;1.85;1.52;;;;;;;23.90;52.36;101959.78;4972794;28;20211;-72
2023/09/05 10:29:41;;;;;;;2.00;1.50;;;;;;;23.97;51.96;101951.72;4972554;28;20215;-72
2023/09/05 10:32:10;;;;;;;2.65;1.30;;;;;;;24.00;52.89;101949.03;4971320;28;20288;-72
2023/09/05 10:35:01;;;;;;;2.25;1.77;;;;;;;24.03;50.22;101942.84;4972824;28;20390;-72
2023/09/05 10:37:39;;;;;;;2.88;1.60;;;;;;;24.08;53.26;101933.63;4974688;28;20214;-72
2023/09/05 10:40:07;;;;;;;3.00;1.70;;;;;;;24.12;54.25;101945.19;4973196;28;20302;-72
2023/09/05 10:42:35;;;;;;;4.10;1.83;;;;;;;24.17;49.77;101936.69;4971294;28;21483;-72
2023/09/05 10:45:18;;;;;;;1.90;1.70;;;;;;;24.23;50.86;101919.75;4969250;28;20220;-72
2023/09/05 10:47:47;;;;;;;4.95;1.67;;;;;;;24.27;52.29;101927.84;4971925;28;20212;-72
2023/09/05 10:50:15;;;;;;;4.03;1.83;;;;;;;24.32;52.42;101922.06;4971566;28;20708;-72
2023/09/05 10:52:40;;;;;;;2.22;1.58;;;;;;;24.35;50.93;101905.84;4971398;28;20235;-72
2023/09/05 10:55:39;;;;;;;3.05;1.67;;;;;;;24.42;50.46;101895.06;4974238;28;20297;-72
2023/09/05 10:58:47;;;;;;;1.90;1.60;;;;;;;24.48;50.99;101904.31;4961644;28;20880;-72
2023/09/05 11:01:45;;;;;;;1.75;1.58;;;;;;;24.54;52.28;101902.75;4973667;28;20701;-72
2023/09/05 11:04:27;;;;;;;5.22;1.73;;;;;;;24.57;49.09;101888.50;4975261;28;20289;-71
2023/09/05 11:06:59;;;;;;;1.50;1.30;;;;;;;24.61;51.67;101894.66;4971619;28;20211;-72
2023/09/05 11:09:26;;;;;;;4.20;1.83;;;;;;;24.65;50.55;101884.63;4972658;28;21474;-72
2023/09/05 11:11:53;;;;;;;2.67;1.40;;;;;;;24.70;50.36;101897.75;4970361;28;20215;-72
2023/09/05 11:14:31;;;;;;;2.83;1.35;;;;;;;24.78;48.98;101887.69;4972019;28;21259;-71
2023/09/05 11:16:58;;;;;;;2.05;1.60;;;;;;;24.85;51.08;101891.16;4968810;28;21065;-72
2023/09/05 11:19:37;;;;;;;3.10;1.50;;;;;;;24.87;50.04;101894.22;4972480;28;20228;-72
2023/09/05 11:22:10;;;;;;;2.20;1.40;;;;;;;24.89;48.60;101889.22;4969451;28;20299;-72
2023/09/05 11:24:36;;;;;;;2.28;1.50;;;;;;;24.93;48.07;101886.50;4970146;28;20277;-72
2023/09/05 11:27:06;;;;;;;2.10;1.38;;;;;;;24.96;50.82;101889.19;4969696;28;20227;-72
2023/09/05 11:29:34;;;;;;;2.63;1.40;;;;;;;25.03;49.13;101889.16;4969798;28;20207;-72
2023/09/05 11:32:01;;;;;;;1.25;1.15;;;;;;;25.07;51.09;101883.75;4984433;28;20216;-72